URRP Airport Information

Runway Information
Airport Frequencies
Airport Navaids
Airport Weather Information & NOTAM
ADDS - METARS form results

(2216 UTC 18 February 2019)
Data provider http://aviationweather.gov/metar/data/
 
METAR text: URRP 182200Z 34003MPS 9999 SCT/// M02/M08 Q1020 R05/CLRD70 TEMPO 34008G15MPS SCT010 RMK QFE760/1014
Conditions at: URRP (PLATOV , RU) observed 2200 UTC 18 February 2019
Temperature: -2.0°C (28°F)
Dewpoint: -8.0°C (18°F) [RH = 63%]
Pressure (altimeter): 30.12 inches Hg (1020.0 mb)
Winds: from the NNW (340 degrees) at 7 MPH (6 knots; 3.1 m/s)
Visibility: 6 or more miles (10+ km)
Ceiling: unknown
Clouds: missing
Weather: no significant weather observed at this time

METAR text: URRP 182130Z 01006MPS 9999 BKN037 M01/M08 Q1020 R05/CLRD70 TEMPO 34008G15MPS SCT010 RMK QFE760/1014
Conditions at: URRP (PLATOV , RU) observed 2130 UTC 18 February 2019
Temperature: -1.0°C (30°F)
Dewpoint: -8.0°C (18°F) [RH = 59%]
Pressure (altimeter): 30.12 inches Hg (1020.0 mb)
Winds: from the N (10 degrees) at 14 MPH (12 knots; 6.2 m/s)
Visibility: 6 or more miles (10+ km)
Ceiling: 3700 feet AGL
Clouds: broken clouds at 3700 feet AGL
Weather: no significant weather observed at this time

Forecast for: URRP (PLATOV , RU)
Text: TAF URRP 181959Z 1821/1921 35005G12MPS 9999 SCT011 SCT020CB
Forecast period: 2100 UTC 18 February 2019 to 1500 UTC 19 February 2019
Forecast type: FROM: standard forecast or significant change
Winds: from the N (350 degrees) at 12 MPH (10 knots; 5.1 m/s)
gusting to 26 MPH (23 knots; 11.8 m/s)
Visibility: 6 or more miles 10+ km)
Ceiling: at least 12,000 feet AGL
Clouds: scattered clouds at 1100 feet AGL
scattered clouds at 2000 feet AGL
Weather: no significant weather forecast for this period
Text: TEMPO 1821/1903 33007G14MPS
Forecast period: 2100 UTC 18 February 2019 to 0300 UTC 19 February 2019
Forecast type: TEMPORARY: The following changes expected for less than half the time period
Winds: from the NNW (330 degrees) at 16 MPH (14 knots; 7.2 m/s)
gusting to 31 MPH (27 knots; 13.9 m/s)
Visibility: missing
Ceiling: unknown
Clouds: missing
Weather: no significant weather forecast for this period
Text: BECMG 1915/1917 03003G08MPS
Forecast period: 1500 to 2100 UTC 19 February 2019
Forecast type: BECOMING: Conditions expected to become as follows by 1700 UTC 19 February 2019
Winds: from the NNE (30 degrees) at 7 MPH (6 knots; 3.1 m/s)
gusting to 18 MPH (16 knots; 8.2 m/s)
Visibility: 6 or more miles 10+ km)
Ceiling: at least 12,000 feet AGL
Clouds: scattered clouds at 1100 feet AGL
scattered clouds at 2000 feet AGL
Weather: no significant weather forecast for this period